createdAt,value
2023-10-19T00:04:41.744Z,83.26
2023-10-19T00:09:49.732Z,83.44
2023-10-19T00:15:24.859Z,83.49
2023-10-19T00:20:46.822Z,83.61
2023-10-19T00:26:21.543Z,83.64
2023-10-19T00:31:29.182Z,83.61
2023-10-19T00:36:41.035Z,83.76
2023-10-19T00:41:46.997Z,83.76
2023-10-19T00:51:29.529Z,83.84
2023-10-19T01:07:13.786Z,83.89
2023-10-19T01:12:27.045Z,83.90
2023-10-19T01:17:32.922Z,83.65
2023-10-19T01:22:37.163Z,83.31
2023-10-19T01:41:58.706Z,83.55
2023-10-19T01:51:40.231Z,84.02
2023-10-19T01:56:45.003Z,84.22
2023-10-19T02:01:50.864Z,84.29
2023-10-19T02:06:55.004Z,84.44
2023-10-19T02:11:59.111Z,84.52
2023-10-19T02:17:05.424Z,84.80
2023-10-19T02:22:10.241Z,84.70
2023-10-19T02:27:26.763Z,84.86
2023-10-19T02:32:34.952Z,84.88
2023-10-19T02:37:40.220Z,84.75
2023-10-19T02:42:48.193Z,84.50
2023-10-19T02:47:52.139Z,84.43
2023-10-19T02:52:56.149Z,84.70
2023-10-19T02:58:00.599Z,84.76
2023-10-19T03:10:31.685Z,84.39
2023-10-19T03:23:30.273Z,84.69
2023-10-19T03:28:36.933Z,84.82
2023-10-19T03:40:53.111Z,85.05
2023-10-19T03:46:00.388Z,85.00
2023-10-19T03:51:04.776Z,85.13
2023-10-19T04:11:24.597Z,85.41
2023-10-19T04:16:57.719Z,85.67
2023-10-19T04:22:01.550Z,85.93
2023-10-19T04:27:10.025Z,86.32
2023-10-19T04:32:15.948Z,86.54
2023-10-19T04:52:04.901Z,86.57
2023-10-19T04:57:39.814Z,86.82
2023-10-19T05:02:44.533Z,86.79
2023-10-19T05:08:26.791Z,86.84
2023-10-19T05:13:34.549Z,87.00
2023-10-19T05:18:38.650Z,87.00
2023-10-19T05:23:42.677Z,86.99
2023-10-19T05:30:09.024Z,86.93
2023-10-19T05:35:14.727Z,87.03
2023-10-19T05:40:20.559Z,87.18
2023-10-19T05:45:24.830Z,87.24
2023-10-19T05:57:50.912Z,87.26
2023-10-19T06:02:55.058Z,87.39
2023-10-19T06:15:12.347Z,87.51
2023-10-19T06:27:24.622Z,87.57
2023-10-19T06:32:31.637Z,87.75
2023-10-19T06:37:36.319Z,87.83
2023-10-19T06:42:40.599Z,87.82
2023-10-19T06:47:48.688Z,87.78
2023-10-19T06:52:53.149Z,87.76
2023-10-19T06:57:57.107Z,87.74
2023-10-19T07:11:14.609Z,87.79
2023-10-19T07:16:19.610Z,87.68
2023-10-19T07:55:27.080Z,86.48
2023-10-19T08:22:59.856Z,85.00
2023-10-19T08:28:04.181Z,84.97
2023-10-19T08:33:40.312Z,84.69
2023-10-19T08:39:13.322Z,84.33
2023-10-19T08:44:18.561Z,84.07
2023-10-19T08:49:23.633Z,83.84
2023-10-19T09:16:35.499Z,82.25
2023-10-19T09:21:41.045Z,81.76
2023-10-19T09:26:45.084Z,80.92
2023-10-19T09:31:51.459Z,80.18
2023-10-19T09:38:11.379Z,78.81
2023-10-19T09:43:49.833Z,77.50
2023-10-19T10:03:47.729Z,74.73
2023-10-19T10:10:29.327Z,74.14
2023-10-19T10:15:43.231Z,73.63
2023-10-19T10:20:47.681Z,73.86
2023-10-19T10:25:55.271Z,73.90
2023-10-19T10:38:10.597Z,73.94
2023-10-19T10:43:14.799Z,73.64
2023-10-19T10:55:30.486Z,73.04
2023-10-19T11:00:59.899Z,73.14
2023-10-19T11:07:19.453Z,72.43
2023-10-19T11:12:23.495Z,72.73
2023-10-19T11:28:02.669Z,72.63
2023-10-19T11:33:07.400Z,72.54
2023-10-19T11:38:20.311Z,72.52
2023-10-19T11:43:24.048Z,73.06
2023-10-19T11:55:25.108Z,73.14
2023-10-19T12:00:35.328Z,73.46
2023-10-19T12:05:39.691Z,73.87
2023-10-19T12:11:33.379Z,73.76
2023-10-19T12:16:37.708Z,73.81
2023-10-19T12:29:12.874Z,73.52
2023-10-19T12:34:18.158Z,73.75
2023-10-19T12:39:37.162Z,74.07
2023-10-19T12:44:41.073Z,73.97
2023-10-19T12:51:34.214Z,74.36
2023-10-19T13:36:41.596Z,75.77
2023-10-19T13:43:02.243Z,75.54
2023-10-19T13:48:07.705Z,75.10
2023-10-19T13:53:11.651Z,75.03
2023-10-19T13:58:15.722Z,74.71
2023-10-19T14:03:19.700Z,74.64
2023-10-19T14:08:23.898Z,74.81
2023-10-19T14:13:27.866Z,74.96
2023-10-19T14:18:32.709Z,75.04
2023-10-19T14:23:37.989Z,74.95
2023-10-19T14:29:32.265Z,74.93
2023-10-19T14:34:36.139Z,75.03
2023-10-19T14:39:39.797Z,75.18
2023-10-19T14:44:43.738Z,75.08
2023-10-19T14:49:49.043Z,74.70
2023-10-19T14:54:53.702Z,74.81
2023-10-19T14:59:59.338Z,75.07
2023-10-19T15:12:23.718Z,76.07
2023-10-19T15:17:37.140Z,76.40
2023-10-19T15:30:14.094Z,76.79
2023-10-19T15:43:22.894Z,76.71
2023-10-19T15:48:28.353Z,76.87
2023-10-19T16:24:11.455Z,76.96
2023-10-19T16:38:02.560Z,76.97
2023-10-19T16:43:10.476Z,76.95
2023-10-19T16:53:50.401Z,76.93
2023-10-19T16:59:45.112Z,76.83
2023-10-19T17:04:53.216Z,76.70
2023-10-19T17:09:57.357Z,76.57
2023-10-19T17:15:01.467Z,76.48
2023-10-19T17:20:06.555Z,76.53
2023-10-19T17:25:11.270Z,76.44
2023-10-19T17:30:15.722Z,76.26
2023-10-19T17:35:21.302Z,76.19
2023-10-19T17:40:26.436Z,76.29
2023-10-19T17:54:00.949Z,76.24
2023-10-19T17:59:40.894Z,76.14
2023-10-19T18:04:46.534Z,76.25
2023-10-19T18:09:57.607Z,76.21
2023-10-19T18:15:03.058Z,76.10
2023-10-19T18:20:13.241Z,76.31
2023-10-19T18:25:20.168Z,76.20
2023-10-19T18:30:24.591Z,76.07
2023-10-19T18:35:28.885Z,75.85
2023-10-19T18:40:34.915Z,75.93
2023-10-19T18:45:39.232Z,76.14
2023-10-19T18:50:43.030Z,75.97
2023-10-19T18:55:52.622Z,75.82
2023-10-19T19:01:05.909Z,75.60
2023-10-19T19:06:09.781Z,75.56
2023-10-19T19:11:21.953Z,75.63
2023-10-19T19:16:26.437Z,75.44
2023-10-19T19:21:30.375Z,75.28
2023-10-19T19:26:35.013Z,75.24
2023-10-19T19:31:40.789Z,75.23
2023-10-19T19:36:45.660Z,75.21
2023-10-19T19:41:49.694Z,75.25
2023-10-19T19:46:53.359Z,75.46
2023-10-19T19:52:51.557Z,75.61
2023-10-19T20:05:31.477Z,75.78
2023-10-19T20:10:44.874Z,75.83
2023-10-19T20:15:48.949Z,75.83
2023-10-19T20:20:52.762Z,75.75
2023-10-19T20:33:19.126Z,75.78
2023-10-19T20:38:23.939Z,75.69
2023-10-19T20:43:30.614Z,75.83
2023-10-19T20:48:42.275Z,75.75
2023-10-19T20:53:48.365Z,75.50
2023-10-19T20:58:58.643Z,75.44
2023-10-19T21:04:02.562Z,75.52
2023-10-19T21:09:06.848Z,75.67
2023-10-19T21:14:11.223Z,75.78
2023-10-19T21:19:32.046Z,75.82
2023-10-19T21:24:36.362Z,76.04
2023-10-19T21:29:40.631Z,76.40
2023-10-19T21:34:44.971Z,76.88
2023-10-19T21:39:49.842Z,77.64
2023-10-19T21:44:53.812Z,78.30
2023-10-19T21:50:00.781Z,78.85
2023-10-19T21:55:06.094Z,79.57
2023-10-19T22:14:25.547Z,81.34
2023-10-19T22:24:11.656Z,82.24
2023-10-19T22:29:15.763Z,82.32
2023-10-19T22:34:20.547Z,82.43
2023-10-19T22:39:24.642Z,82.82
2023-10-19T22:44:44.804Z,83.00
2023-10-19T22:57:10.473Z,83.38
2023-10-19T23:02:51.643Z,83.50
2023-10-19T23:08:21.534Z,83.56
2023-10-19T23:13:26.432Z,83.61
2023-10-19T23:18:36.529Z,83.43
2023-10-19T23:23:40.592Z,83.57
2023-10-19T23:28:44.918Z,83.78
2023-10-19T23:33:48.798Z,83.93
2023-10-19T23:40:13.946Z,83.96
2023-10-19T23:45:17.863Z,84.06
2023-10-19T23:50:21.824Z,84.11
2023-10-19T23:55:25.725Z,84.16
